Susquehanna — WDD9976 — position and weather

sailwx.info

Track history (hours):
 
Tides and Currents Weather Stations Pressure Air Temp Water Temp Dewpoint Dewpoint Depression Visibility Wind Speed Wind Dir Waves Ship Positions

Susquehanna

Owner: Vane Line Bunkering, Inc., Baltimore, MD. More information available from US FCC via Universal Licensing System and Coast Guard Vessel Documentation Center.

Last reported at 2016-Jul-24 04:04 UTC. Time now 2016-Jul-24 04:58 UTC.
Position N 36°59' W 076°02'.

Length 28 m; draft 4.2 m.

Type: Tug. MMSI: 367318750.

Date/timePositionNaut miles runAvg speedWind from/ knotsBaromVisibWave heightAir tempDewpointWater temp
2016-Jul-24 04:04N 36°59' W 076°02'510.4
2016-Jul-24 03:33N 36°55' W 075°57'167 8.2
2016-Jul-23 07:14N 34°12' W 076°42'  
2016-Jul-20 18:23N 36°52' W 075°56'8 9.8
2016-Jul-20 17:33N 36°59' W 076°01'118 9.0
2016-Jul-20 04:33N 38°55' W 076°25'10 9.8
2016-Jul-20 03:33N 39°04' W 076°24'9 8.6
2016-Jul-20 02:28N 39°12' W 076°31'4 4.5
2016-Jul-20 01:34N 39°15' W 076°33'0 0.4
2016-Jul-20 00:33N 39°15' W 076°33'1 0.2
2016-Jul-19 20:22N 39°15' W 076°34'0 0.0
2016-Jul-19 19:33N 39°15' W 076°34'1 1.0
2016-Jul-19 18:34N 39°15' W 076°33'1 0.8
2016-Jul-19 17:15N 39°15' W 076°34'0 0.0
2016-Jul-19 15:30N 39°15' W 076°34'0 0.0
2016-Jul-19 14:30N 39°15' W 076°34'0 0.0
2016-Jul-19 13:30N 39°15' W 076°34'0 0.0
2016-Jul-19 12:31N 39°15' W 076°34'0 0.0
2016-Jul-19 11:33N 39°15' W 076°34'0 0.0
2016-Jul-19 10:33N 39°15' W 076°34'0 0.0
2016-Jul-19 09:33N 39°15' W 076°34'0 0.0
2016-Jul-19 08:30N 39°15' W 076°34'0 0.0
2016-Jul-19 07:34N 39°15' W 076°34'0 0.0
2016-Jul-19 04:33N 39°15' W 076°34'0 0.0
2016-Jul-19 03:06N 39°15' W 076°34'0 0.0
2016-Jul-19 01:34N 39°15' W 076°34'0 0.0
2016-Jul-19 00:34N 39°15' W 076°34'0 0.0
2016-Jul-18 23:33N 39°15' W 076°34'0 0.0
2016-Jul-18 20:20N 39°15' W 076°34'0 0.0
2016-Jul-18 19:30N 39°15' W 076°34'0 0.0
2016-Jul-18 18:33N 39°15' W 076°34'0 0.0
2016-Jul-18 17:31N 39°15' W 076°34'0 0.0
2016-Jul-18 15:30N 39°15' W 076°34'0 0.0
2016-Jul-18 14:30N 39°15' W 076°34'0 0.0
2016-Jul-18 13:33N 39°15' W 076°34'0 0.0
2016-Jul-18 12:33N 39°15' W 076°34'0 0.0
2016-Jul-18 11:31N 39°15' W 076°34'0 0.0
2016-Jul-18 10:32N 39°15' W 076°34'0 0.0
2016-Jul-18 09:31N 39°15' W 076°34'0 0.0
2016-Jul-18 08:34N 39°15' W 076°34'0 0.0
2016-Jul-18 07:12N 39°15' W 076°34'0 0.0
2016-Jul-18 04:24N 39°15' W 076°34'0 0.0
2016-Jul-18 03:33N 39°15' W 076°34'0 0.0
2016-Jul-18 02:33N 39°15' W 076°34'0 0.0
2016-Jul-18 01:33N 39°15' W 076°34'0 0.0
2016-Jul-18 00:31N 39°15' W 076°34'0 0.0
2016-Jul-17 23:15N 39°15' W 076°34'0 0.0
2016-Jul-17 22:25N 39°15' W 076°34'0 0.0
2016-Jul-17 21:30N 39°15' W 076°34'0 0.0
2016-Jul-17 20:30N 39°15' W 076°34'1 1.1
2016-Jul-17 19:30N 39°15' W 076°33'0 0.0
2016-Jul-17 18:20N 39°15' W 076°33'0 0.0
2016-Jul-17 17:15N 39°15' W 076°33'0 0.0
2016-Jul-17 16:25N 39°15' W 076°33'1 1.2
2016-Jul-17 15:30N 39°15' W 076°34'0 0.0
2016-Jul-17 14:25N 39°15' W 076°34'0 0.0
2016-Jul-17 13:30N 39°15' W 076°34'0 0.0
2016-Jul-17 12:30N 39°15' W 076°34'0 0.0
2016-Jul-17 11:34N 39°15' W 076°34'0 0.0
2016-Jul-17 10:30N 39°15' W 076°34'0 0.0
2016-Jul-17 09:30N 39°15' W 076°34'0 0.0
2016-Jul-17 08:33N 39°15' W 076°34'0 0.0
2016-Jul-17 07:30N 39°15' W 076°34'0 0.0
2016-Jul-17 06:32N 39°15' W 076°34'0 0.0
2016-Jul-17 04:33N 39°15' W 076°34'0 0.0
2016-Jul-17 03:33N 39°15' W 076°34'0 0.0
2016-Jul-17 02:34N 39°15' W 076°34'0 0.0
2016-Jul-17 01:30N 39°15' W 076°34'0 0.0
2016-Jul-17 00:33N 39°15' W 076°34'0 0.0
2016-Jul-16 23:25N 39°15' W 076°34'0 0.0
2016-Jul-16 22:25N 39°15' W 076°34'0 0.0
2016-Jul-16 21:20N 39°15' W 076°34'0 0.0
2016-Jul-16 20:25N 39°15' W 076°34'0 0.0
2016-Jul-16 19:25N 39°15' W 076°34'0 0.0
2016-Jul-16 18:30N 39°15' W 076°34'0 0.0
2016-Jul-16 17:30N 39°15' W 076°34'0 0.0
2016-Jul-16 16:30N 39°15' W 076°34'0 0.0
2016-Jul-16 15:15N 39°15' W 076°34'0 0.0
2016-Jul-16 14:30N 39°15' W 076°34'0 0.0
2016-Jul-16 13:25N 39°15' W 076°34'0 0.0
2016-Jul-16 12:33N 39°15' W 076°34'0 0.0
2016-Jul-16 11:33N 39°15' W 076°34'0 0.0
2016-Jul-16 10:27N 39°15' W 076°34'0 0.0
2016-Jul-16 09:25N 39°15' W 076°34'0 0.0
2016-Jul-16 08:30N 39°15' W 076°34'0 0.0
2016-Jul-16 07:25N 39°15' W 076°34'0 0.0
2016-Jul-16 06:33N 39°15' W 076°34'0 0.0
2016-Jul-16 04:30N 39°15' W 076°34'0 0.0
2016-Jul-16 03:33N 39°15' W 076°34'0 0.0
2016-Jul-16 02:34N 39°15' W 076°34'0 0.0
2016-Jul-16 01:25N 39°15' W 076°34'0 0.0
2016-Jul-16 00:30N 39°15' W 076°34'0 0.0
2016-Jul-15 23:30N 39°15' W 076°34'0 0.0
2016-Jul-15 22:30N 39°15' W 076°34'0 0.0
2016-Jul-15 21:30N 39°15' W 076°34'0 0.0
2016-Jul-15 20:26N 39°15' W 076°34'1 1.0
2016-Jul-15 19:33N 39°15' W 076°33'6 6.3
2016-Jul-15 18:33N 39°11' W 076°27'9 8.6
2016-Jul-15 17:32N 39°03' W 076°23'50 8.3
2016-Jul-15 11:33N 38°13' W 076°17'11 8.6
2016-Jul-15 10:18N 38°02' W 076°16'9 8.6
2016-Jul-15 09:18N 37°54' W 076°11'6 8.1
2016-Jul-15 08:33N 37°48' W 076°11'9 8.6
2016-Jul-15 07:33N 37°40' W 076°11'8 8.1
2016-Jul-15 06:33N 37°32' W 076°10'33 7.8
2016-Jul-15 02:20N 36°59' W 076°02'6 7.8
2016-Jul-15 01:31N 36°55' W 075°56'139 8.5
2016-Jul-14 09:12N 34°36' W 075°44'6 8.8
2016-Jul-14 08:33N 34°31' W 075°48'10 8.8
2016-Jul-14 07:25N 34°23' W 075°55'7 8.7
2016-Jul-14 06:33N 34°17' W 076°00'9 8.8
2016-Jul-14 05:34N 34°11' W 076°08'9 9.4
2016-Jul-14 04:34N 34°05' W 076°16'  
Track history (hours):
 
Tides and Currents Weather Stations Pressure Air Temp Water Temp Dewpoint Dewpoint Depression Visibility Wind Speed Wind Dir Waves Ship Positions

Susquehanna

Owner: Vane Line Bunkering, Inc., Baltimore, MD. More information available from US FCC via Universal Licensing System and Coast Guard Vessel Documentation Center.

Last reported at 2016-Jul-24 04:04 UTC. Time now 2016-Jul-24 04:58 UTC.
Position N 36°59' W 076°02'.

Length 28 m; draft 4.2 m.

Type: Tug. MMSI: 367318750.

Date/timePositionNaut miles runAvg speedWind from/ knotsBaromVisibWave heightAir tempDewpointWater temp
2016-Jul-24 04:04N 36°59' W 076°02'510.4
2016-Jul-24 03:33N 36°55' W 075°57'167 8.2
2016-Jul-23 07:14N 34°12' W 076°42'  
2016-Jul-20 18:23N 36°52' W 075°56'8 9.8
2016-Jul-20 17:33N 36°59' W 076°01'118 9.0
2016-Jul-20 04:33N 38°55' W 076°25'10 9.8
2016-Jul-20 03:33N 39°04' W 076°24'9 8.6
2016-Jul-20 02:28N 39°12' W 076°31'4 4.5
2016-Jul-20 01:34N 39°15' W 076°33'0 0.4
2016-Jul-20 00:33N 39°15' W 076°33'1 0.2
2016-Jul-19 20:22N 39°15' W 076°34'0 0.0
2016-Jul-19 19:33N 39°15' W 076°34'1 1.0
2016-Jul-19 18:34N 39°15' W 076°33'1 0.8
2016-Jul-19 17:15N 39°15' W 076°34'0 0.0
2016-Jul-19 15:30N 39°15' W 076°34'0 0.0
2016-Jul-19 14:30N 39°15' W 076°34'0 0.0
2016-Jul-19 13:30N 39°15' W 076°34'0 0.0
2016-Jul-19 12:31N 39°15' W 076°34'0 0.0
2016-Jul-19 11:33N 39°15' W 076°34'0 0.0
2016-Jul-19 10:33N 39°15' W 076°34'0 0.0
2016-Jul-19 09:33N 39°15' W 076°34'0 0.0
2016-Jul-19 08:30N 39°15' W 076°34'0 0.0
2016-Jul-19 07:34N 39°15' W 076°34'0 0.0
2016-Jul-19 04:33N 39°15' W 076°34'0 0.0
2016-Jul-19 03:06N 39°15' W 076°34'0 0.0
2016-Jul-19 01:34N 39°15' W 076°34'0 0.0
2016-Jul-19 00:34N 39°15' W 076°34'0 0.0
2016-Jul-18 23:33N 39°15' W 076°34'0 0.0
2016-Jul-18 20:20N 39°15' W 076°34'0 0.0
2016-Jul-18 19:30N 39°15' W 076°34'0 0.0
2016-Jul-18 18:33N 39°15' W 076°34'0 0.0
2016-Jul-18 17:31N 39°15' W 076°34'0 0.0
2016-Jul-18 15:30N 39°15' W 076°34'0 0.0
2016-Jul-18 14:30N 39°15' W 076°34'0 0.0
2016-Jul-18 13:33N 39°15' W 076°34'0 0.0
2016-Jul-18 12:33N 39°15' W 076°34'0 0.0
2016-Jul-18 11:31N 39°15' W 076°34'0 0.0
2016-Jul-18 10:32N 39°15' W 076°34'0 0.0
2016-Jul-18 09:31N 39°15' W 076°34'0 0.0
2016-Jul-18 08:34N 39°15' W 076°34'0 0.0
2016-Jul-18 07:12N 39°15' W 076°34'0 0.0
2016-Jul-18 04:24N 39°15' W 076°34'0 0.0
2016-Jul-18 03:33N 39°15' W 076°34'0 0.0
2016-Jul-18 02:33N 39°15' W 076°34'0 0.0
2016-Jul-18 01:33N 39°15' W 076°34'0 0.0
2016-Jul-18 00:31N 39°15' W 076°34'0 0.0
2016-Jul-17 23:15N 39°15' W 076°34'0 0.0
2016-Jul-17 22:25N 39°15' W 076°34'0 0.0
2016-Jul-17 21:30N 39°15' W 076°34'0 0.0
2016-Jul-17 20:30N 39°15' W 076°34'1 1.1
2016-Jul-17 19:30N 39°15' W 076°33'0 0.0
2016-Jul-17 18:20N 39°15' W 076°33'0 0.0
2016-Jul-17 17:15N 39°15' W 076°33'0 0.0
2016-Jul-17 16:25N 39°15' W 076°33'1 1.2
2016-Jul-17 15:30N 39°15' W 076°34'0 0.0
2016-Jul-17 14:25N 39°15' W 076°34'0 0.0
2016-Jul-17 13:30N 39°15' W 076°34'0 0.0
2016-Jul-17 12:30N 39°15' W 076°34'0 0.0
2016-Jul-17 11:34N 39°15' W 076°34'0 0.0
2016-Jul-17 10:30N 39°15' W 076°34'0 0.0
2016-Jul-17 09:30N 39°15' W 076°34'0 0.0
2016-Jul-17 08:33N 39°15' W 076°34'0 0.0
2016-Jul-17 07:30N 39°15' W 076°34'0 0.0
2016-Jul-17 06:32N 39°15' W 076°34'0 0.0
2016-Jul-17 04:33N 39°15' W 076°34'0 0.0
2016-Jul-17 03:33N 39°15' W 076°34'0 0.0
2016-Jul-17 02:34N 39°15' W 076°34'0 0.0
2016-Jul-17 01:30N 39°15' W 076°34'0 0.0
2016-Jul-17 00:33N 39°15' W 076°34'0 0.0
2016-Jul-16 23:25N 39°15' W 076°34'0 0.0
2016-Jul-16 22:25N 39°15' W 076°34'0 0.0
2016-Jul-16 21:20N 39°15' W 076°34'0 0.0
2016-Jul-16 20:25N 39°15' W 076°34'0 0.0
2016-Jul-16 19:25N 39°15' W 076°34'0 0.0
2016-Jul-16 18:30N 39°15' W 076°34'0 0.0
2016-Jul-16 17:30N 39°15' W 076°34'0 0.0
2016-Jul-16 16:30N 39°15' W 076°34'0 0.0
2016-Jul-16 15:15N 39°15' W 076°34'0 0.0
2016-Jul-16 14:30N 39°15' W 076°34'0 0.0
2016-Jul-16 13:25N 39°15' W 076°34'0 0.0
2016-Jul-16 12:33N 39°15' W 076°34'0 0.0
2016-Jul-16 11:33N 39°15' W 076°34'0 0.0
2016-Jul-16 10:27N 39°15' W 076°34'0 0.0
2016-Jul-16 09:25N 39°15' W 076°34'0 0.0
2016-Jul-16 08:30N 39°15' W 076°34'0 0.0
2016-Jul-16 07:25N 39°15' W 076°34'0 0.0
2016-Jul-16 06:33N 39°15' W 076°34'0 0.0
2016-Jul-16 04:30N 39°15' W 076°34'0 0.0
2016-Jul-16 03:33N 39°15' W 076°34'0 0.0
2016-Jul-16 02:34N 39°15' W 076°34'0 0.0
2016-Jul-16 01:25N 39°15' W 076°34'0 0.0
2016-Jul-16 00:30N 39°15' W 076°34'0 0.0
2016-Jul-15 23:30N 39°15' W 076°34'0 0.0
2016-Jul-15 22:30N 39°15' W 076°34'0 0.0
2016-Jul-15 21:30N 39°15' W 076°34'0 0.0
2016-Jul-15 20:26N 39°15' W 076°34'1 1.0
2016-Jul-15 19:33N 39°15' W 076°33'6 6.3
2016-Jul-15 18:33N 39°11' W 076°27'9 8.6
2016-Jul-15 17:32N 39°03' W 076°23'50 8.3
2016-Jul-15 11:33N 38°13' W 076°17'11 8.6
2016-Jul-15 10:18N 38°02' W 076°16'9 8.6
2016-Jul-15 09:18N 37°54' W 076°11'6 8.1
2016-Jul-15 08:33N 37°48' W 076°11'9 8.6
2016-Jul-15 07:33N 37°40' W 076°11'8 8.1
2016-Jul-15 06:33N 37°32' W 076°10'33 7.8
2016-Jul-15 02:20N 36°59' W 076°02'6 7.8
2016-Jul-15 01:31N 36°55' W 075°56'139 8.5
2016-Jul-14 09:12N 34°36' W 075°44'6 8.8
2016-Jul-14 08:33N 34°31' W 075°48'10 8.8
2016-Jul-14 07:25N 34°23' W 075°55'7 8.7
2016-Jul-14 06:33N 34°17' W 076°00'9 8.8
2016-Jul-14 05:34N 34°11' W 076°08'9 9.4
2016-Jul-14 04:34N 34°05' W 076°16'  

Dump ship's entire track history